CST,Max TemperatureF,Mean TemperatureF,Min TemperatureF,Max Dew PointF,MeanDew PointF,Min DewpointF,Max Humidity, Mean Humidity, Min Humidity, Max Sea Level PressureIn, Mean Sea Level PressureIn, Min Sea Level PressureIn, Max VisibilityMiles, Mean VisibilityMiles, Min VisibilityMiles, Max Wind SpeedMPH, Mean Wind SpeedMPH, Max Gust SpeedMPH,PrecipitationIn, CloudCover, Events, WindDirDegrees
2013-11-1,53,44,37,38,36,32,93,74,52,29.87,29.63,29.43,10,9,6,13,8,22,0.00,5,,301
2013-11-2,51,42,34,36,31,30,89,69,46,30.11,30.03,29.88,10,10,9,12,7,,0.00,1,,311
2013-11-3,57,46,37,34,32,29,86,60,40,30.11,30.00,29.89,10,10,8,30,12,40,0.00,0,,139
2013-11-4,50,43,35,45,38,33,97,77,54,30.17,29.92,29.83,10,9,2,17,11,26,0.14,5,Rain,205
2013-11-5,45,36,28,33,30,25,100,87,49,30.25,30.12,30.01,10,4,0,13,4,22,0.16,5,Fog-Snow,2
2013-11-6,39,34,28,32,28,24,93,80,60,30.19,30.09,30.00,10,9,2,14,11,22,0.02,5,Snow,303
2013-11-7,36,31,26,29,27,24,100,89,75,30.26,30.22,30.16,10,6,0,12,6,,0.00,6,Fog,244
2013-11-8,46,35,24,39,29,22,92,72,48,30.21,29.91,29.61,10,8,3,24,8,29,0.00,4,,159
2013-11-9,45,40,36,39,32,24,81,69,53,30.22,29.92,29.64,10,10,10,22,14,33,0.00,7,,279
2013-11-10,42,38,33,31,28,25,73,68,57,30.35,30.25,30.12,10,10,10,14,8,18,0.00,6,,260
2013-11-11,37,27,16,31,14,8,81,61,47,30.76,30.44,30.13,10,10,8,21,12,25,0.00,4,Rain-Snow,342
2013-11-12,28,20,12,14,9,7,84,64,41,30.82,30.70,30.47,10,10,10,13,7,,0.00,0,,248
2013-11-13,51,36,21,33,23,12,67,56,44,30.44,30.08,29.88,10,10,10,18,11,25,0.00,0,,208
2013-11-14,53,44,34,38,32,28,86,73,55,29.87,29.83,29.77,10,10,10,8,6,,0.00,3,,232
2013-11-15,57,44,30,39,34,28,92,73,44,29.86,29.77,29.64,10,9,5,15,5,23,0.00,0,,183
2013-11-16,48,44,41,48,43,34,100,91,71,29.62,29.35,29.22,10,5,0,15,9,24,0.10,6,Fog-Rain-Thunderstorm,145
2013-11-17,45,39,32,40,35,24,96,82,68,29.85,29.46,29.31,10,8,2,26,10,34,0.00,7,,277
2013-11-18,37,30,24,24,20,18,81,66,50,30.28,30.12,29.87,10,10,10,21,14,33,0.00,3,,299
2013-11-19,48,34,21,29,24,18,85,62,41,30.27,30.09,29.92,10,10,10,20,9,29,0.00,2,,138
2013-11-20,45,41,37,34,30,24,86,63,45,30.05,29.94,29.89,10,9,5,17,13,24,0.00,8,,156
2013-11-21,39,32,25,37,27,13,100,83,60,30.53,30.26,30.05,10,5,1,17,7,25,0.00,8,Snow,335
2013-11-22,34,24,12,14,10,3,81,59,29,30.66,30.56,30.48,10,10,10,21,10,26,0.00,2,,297
2013-11-23,19,14,7,4,2,-3,84,64,40,30.88,30.79,30.63,10,10,10,18,12,26,0.00,1,,308
2013-11-24,32,19,6,15,8,1,84,61,44,30.74,30.37,30.01,10,10,10,26,10,38,0.00,0,,190
2013-11-25,39,34,28,27,22,16,80,64,53,30.10,30.00,29.93,10,10,10,21,14,30,0.00,6,,268
2013-11-26,30,22,14,19,7,1,71,54,44,30.41,30.26,30.09,10,10,10,23,16,33,0.00,4,,326
2013-11-27,24,16,9,10,7,4,84,63,48,30.42,30.27,30.10,10,10,10,12,6,,0.00,3,,150
2013-11-28,28,20,12,13,11,8,81,63,51,30.54,30.33,30.09,10,10,9,15,6,20,0.00,4,,315
2013-11-29,34,22,10,20,15,7,88,70,48,30.54,30.39,30.16,10,10,8,16,5,22,0.00,0,,157
2013-11-30,41,34,26,26,24,20,85,70,53,30.18,30.09,30.04,10,9,6,10,6,,0.00,2,,259